createdAt,value
2023-09-08T00:00:08.977Z,18.2
2023-09-08T00:05:08.417Z,18.2
2023-09-08T00:10:08.591Z,18.2
2023-09-08T00:15:08.831Z,18.2
2023-09-08T00:20:09.140Z,18.2
2023-09-08T00:25:08.356Z,17.8
2023-09-08T00:30:08.698Z,17.8
2023-09-08T00:35:08.852Z,17.8
2023-09-08T00:40:09.164Z,17.8
2023-09-08T00:45:08.458Z,17.7
2023-09-08T00:50:08.714Z,17.7
2023-09-08T00:55:09.008Z,17.8
2023-09-08T01:00:08.163Z,17.8
2023-09-08T01:05:09.081Z,17.5
2023-09-08T01:10:08.299Z,17.5
2023-09-08T01:15:08.595Z,17.3
2023-09-08T01:20:08.866Z,17.3
2023-09-08T01:25:09.654Z,17.3
2023-09-08T01:30:08.834Z,17.3
2023-09-08T01:35:09.057Z,17.2
2023-09-08T01:40:08.276Z,17.2
2023-09-08T01:45:08.521Z,17.2
2023-09-08T01:50:08.700Z,17.2
2023-09-08T01:55:09.061Z,17.3
2023-09-08T02:00:08.328Z,17.3
2023-09-08T02:05:08.560Z,17.3
2023-09-08T02:10:08.810Z,17.3
2023-09-08T02:15:09.102Z,17.1
2023-09-08T02:20:08.384Z,17.1
2023-09-08T02:25:08.533Z,17.1
2023-09-08T02:30:08.793Z,17.1
2023-09-08T02:35:09.085Z,17.0
2023-09-08T02:40:08.332Z,17.0
2023-09-08T02:45:08.460Z,17.0
2023-09-08T02:50:08.642Z,17.0
2023-09-08T02:55:08.858Z,17.0
2023-09-08T03:00:09.267Z,17.0
2023-09-08T03:05:08.461Z,17.0
2023-09-08T03:10:08.741Z,17.0
2023-09-08T03:15:08.900Z,17.0
2023-09-08T03:20:09.120Z,17.0
2023-09-08T03:25:08.401Z,17.1
2023-09-08T03:30:08.623Z,17.1
2023-09-08T03:35:08.806Z,17.0
2023-09-08T03:40:09.109Z,17.0
2023-09-08T03:45:08.329Z,16.7
2023-09-08T03:50:08.590Z,16.7
2023-09-08T03:55:08.825Z,16.7
2023-09-08T04:00:09.034Z,16.7
2023-09-08T04:05:02.376Z,16.6
2023-09-08T04:10:02.767Z,16.6
2023-09-08T04:15:03.213Z,16.2
2023-09-08T04:20:03.702Z,16.2
2023-09-08T04:25:02.991Z,16.2
2023-09-08T04:30:02.388Z,16.2
2023-09-08T04:35:02.767Z,16.0
2023-09-08T04:40:05.050Z,16.0
2023-09-08T04:45:03.962Z,16.0
2023-09-08T04:50:02.425Z,15.8
2023-09-08T04:55:02.942Z,15.8
2023-09-08T05:00:03.605Z,15.8
2023-09-08T05:05:03.045Z,15.8
2023-09-08T05:10:02.386Z,15.8
2023-09-08T05:15:02.748Z,15.8
2023-09-08T05:20:03.185Z,15.8
2023-09-08T05:25:02.714Z,16.0
2023-09-08T05:30:03.213Z,16.0
2023-09-08T05:35:02.432Z,16.0
2023-09-08T05:40:02.769Z,16.0
2023-09-08T05:45:03.011Z,16.2
2023-09-08T05:50:02.364Z,16.2
2023-09-08T05:55:04.232Z,16.3
2023-09-08T06:00:03.848Z,16.3
2023-09-08T06:05:03.276Z,16.7
2023-09-08T06:10:02.691Z,16.7
2023-09-08T06:15:02.998Z,17.2
2023-09-08T06:20:02.423Z,17.2
2023-09-08T06:25:02.765Z,17.7
2023-09-08T06:30:03.156Z,17.7
2023-09-08T06:35:02.426Z,18.1
2023-09-08T06:40:02.724Z,18.1
2023-09-08T06:45:03.138Z,18.5
2023-09-08T06:50:02.516Z,18.5
2023-09-08T06:55:02.885Z,19.0
2023-09-08T07:00:03.393Z,19.0
2023-09-08T07:05:02.943Z,19.3
2023-09-08T07:10:02.506Z,19.3
2023-09-08T07:15:02.767Z,20.0
2023-09-08T07:20:03.082Z,20.0
2023-09-08T07:25:02.863Z,20.2
2023-09-08T07:30:04.196Z,20.2
2023-09-08T07:35:02.789Z,20.8
2023-09-08T07:40:03.161Z,20.8
2023-09-08T07:45:02.524Z,21.5
2023-09-08T07:50:02.810Z,21.5
2023-09-08T07:55:03.188Z,22.1
2023-09-08T08:00:02.642Z,22.1
2023-09-08T08:05:03.730Z,23.2
2023-09-08T08:10:03.039Z,23.7
2023-09-08T08:15:02.648Z,23.7
2023-09-08T08:20:03.074Z,24.6
2023-09-08T08:25:02.526Z,24.6
2023-09-08T08:30:03.111Z,26.1
2023-09-08T08:35:02.423Z,26.1
2023-09-08T08:40:02.987Z,26.2
2023-09-08T08:45:02.451Z,26.2
2023-09-08T08:50:02.797Z,26.7
2023-09-08T08:55:03.231Z,26.7
2023-09-08T09:00:02.895Z,27.1
2023-09-08T09:05:03.988Z,27.7
2023-09-08T09:10:02.343Z,27.7
2023-09-08T09:15:03.087Z,27.5
2023-09-08T09:20:02.845Z,27.5
2023-09-08T09:25:03.168Z,28.1
2023-09-08T09:30:02.600Z,28.1
2023-09-08T09:35:02.877Z,28.5
2023-09-08T09:40:03.784Z,28.5
2023-09-08T09:45:03.254Z,30.5
2023-09-08T09:50:02.738Z,30.1
2023-09-08T09:55:03.036Z,30.1
2023-09-08T10:00:02.820Z,29.7
2023-09-08T10:05:03.230Z,29.7
2023-09-08T10:10:02.657Z,29.0
2023-09-08T10:15:03.285Z,29.0
2023-09-08T10:20:02.631Z,28.7
2023-09-08T10:25:02.883Z,28.7
2023-09-08T10:30:02.293Z,29.2
2023-09-08T10:35:02.746Z,29.2
2023-09-08T10:40:03.214Z,30.3
2023-09-08T10:45:02.570Z,30.3
2023-09-08T10:50:02.850Z,30.0
2023-09-08T10:55:03.221Z,30.0
2023-09-08T11:00:02.844Z,31.6
2023-09-08T11:05:03.105Z,30.5
2023-09-08T11:10:02.806Z,30.5
2023-09-08T11:15:03.193Z,31.2
2023-09-08T11:20:02.632Z,31.2
2023-09-08T11:25:02.975Z,31.2
2023-09-08T11:30:02.327Z,31.2
2023-09-08T11:35:02.823Z,31.3
2023-09-08T11:40:03.250Z,31.3
2023-09-08T11:45:02.596Z,31.8
2023-09-08T11:50:02.872Z,31.8
2023-09-08T11:55:07.606Z,32.2
2023-09-08T12:00:03.187Z,32.2
2023-09-08T12:05:02.576Z,32.7
2023-09-08T12:10:03.115Z,32.7
2023-09-08T12:15:02.390Z,32.5
2023-09-08T12:20:02.817Z,33.4
2023-09-08T12:25:03.286Z,33.4
2023-09-08T12:30:02.722Z,33.2
2023-09-08T12:35:03.057Z,33.2
2023-09-08T12:40:02.430Z,33.2
2023-09-08T12:45:02.866Z,33.2
2023-09-08T12:50:03.416Z,33.2
2023-09-08T12:55:02.803Z,33.2
2023-09-08T13:00:03.080Z,32.7
2023-09-08T13:05:02.704Z,33.4
2023-09-08T13:10:03.217Z,33.4
2023-09-08T13:15:02.693Z,33.0
2023-09-08T13:20:03.031Z,33.0
2023-09-08T13:25:02.383Z,34.0
2023-09-08T13:30:02.773Z,34.0
2023-09-08T13:35:03.040Z,32.7
2023-09-08T13:40:02.555Z,32.7
2023-09-08T13:45:03.911Z,33.5
2023-09-08T13:50:05.668Z,33.5
2023-09-08T14:00:04.763Z,34.2
2023-09-08T14:05:04.351Z,34.0
2023-09-08T14:15:02.304Z,34.0
2023-09-08T14:20:02.840Z,34.0
2023-09-08T14:25:03.245Z,34.7
2023-09-08T14:30:02.589Z,34.7
2023-09-08T14:35:02.857Z,34.0
2023-09-08T14:40:03.212Z,34.0
2023-09-08T14:45:02.566Z,34.2
2023-09-08T14:50:03.065Z,36.7
2023-09-08T14:55:02.415Z,35.0
2023-09-08T15:00:02.760Z,35.0
2023-09-08T15:05:03.292Z,34.0
2023-09-08T15:10:02.698Z,34.0
2023-09-08T15:15:03.136Z,33.7
2023-09-08T15:20:02.566Z,33.7
2023-09-08T15:25:02.895Z,33.5
2023-09-08T15:30:03.185Z,33.5
2023-09-08T15:35:02.473Z,32.9
2023-09-08T15:40:02.861Z,34.9
2023-09-08T15:45:03.371Z,35.0
2023-09-08T15:50:02.645Z,35.0
2023-09-08T15:55:03.023Z,34.2
2023-09-08T16:00:02.397Z,34.2
2023-09-08T16:05:02.766Z,34.2
2023-09-08T16:10:03.358Z,34.2
2023-09-08T16:15:02.789Z,34.2
2023-09-08T16:20:03.113Z,33.2
2023-09-08T16:25:02.607Z,33.2
2023-09-08T16:30:02.900Z,34.2
2023-09-08T16:35:03.193Z,32.2
2023-09-08T16:40:02.554Z,32.0
2023-09-08T16:45:02.867Z,32.0
2023-09-08T16:50:03.042Z,31.7
2023-09-08T16:55:02.372Z,31.7
2023-09-08T17:00:02.905Z,30.7
2023-09-08T17:05:02.654Z,29.7
2023-09-08T17:10:03.223Z,29.7
2023-09-08T17:15:02.585Z,29.2
2023-09-08T17:20:02.978Z,29.2
2023-09-08T17:25:02.338Z,29.0
2023-09-08T17:30:02.708Z,29.0
2023-09-08T17:35:03.050Z,28.0
2023-09-08T17:40:02.633Z,28.0
2023-09-08T17:45:06.279Z,26.7
2023-09-08T17:50:04.220Z,26.7
2023-09-08T17:55:02.712Z,26.2
2023-09-08T18:00:03.059Z,26.2
2023-09-08T18:05:02.800Z,25.7
2023-09-08T18:10:03.456Z,25.7
2023-09-08T18:15:04.738Z,25.3
2023-09-08T18:20:03.001Z,25.3
2023-09-08T18:25:02.448Z,25.0
2023-09-08T18:30:02.987Z,25.0
2023-09-08T18:35:02.422Z,25.0
2023-09-08T18:40:02.823Z,24.7
2023-09-08T18:45:03.211Z,24.7
2023-09-08T18:50:02.922Z,24.5
2023-09-08T18:55:03.519Z,24.5
2023-09-08T19:00:02.848Z,24.0
2023-09-08T19:05:03.240Z,24.0
2023-09-08T19:10:02.567Z,24.0
2023-09-08T19:15:03.006Z,23.6
2023-09-08T19:20:02.346Z,23.6
2023-09-08T19:25:02.703Z,23.3
2023-09-08T19:30:03.038Z,23.3
2023-09-08T19:35:02.388Z,23.2
2023-09-08T19:40:02.884Z,23.2
2023-09-08T19:45:03.288Z,22.7
2023-09-08T19:50:02.642Z,22.7
2023-09-08T19:55:02.983Z,22.6
2023-09-08T20:00:02.380Z,22.6
2023-09-08T20:05:02.889Z,22.3
2023-09-08T20:10:03.058Z,22.3
2023-09-08T20:15:02.420Z,22.2
2023-09-08T20:20:02.788Z,22.2
2023-09-08T20:25:03.086Z,22.0
2023-09-08T20:30:02.964Z,22.0
2023-09-08T20:35:02.468Z,21.7
2023-09-08T20:40:02.683Z,21.7
2023-09-08T20:45:03.152Z,21.5
2023-09-08T20:50:02.759Z,21.5
2023-09-08T20:55:03.113Z,21.2
2023-09-08T21:00:02.383Z,21.2
2023-09-08T21:05:02.822Z,21.2
2023-09-08T21:10:03.482Z,21.2
2023-09-08T21:15:02.910Z,21.2
2023-09-08T21:20:02.258Z,21.2
2023-09-08T21:25:02.681Z,21.0
2023-09-08T21:30:03.018Z,21.0
2023-09-08T21:35:02.271Z,20.8
2023-09-08T21:40:02.578Z,20.8
2023-09-08T21:45:02.929Z,20.8
2023-09-08T21:50:03.324Z,20.8
2023-09-08T21:55:02.792Z,20.7
2023-09-08T22:00:05.027Z,20.7
2023-09-08T22:05:15.335Z,20.6
2023-09-08T22:10:08.626Z,20.6
2023-09-08T22:15:08.896Z,20.2
2023-09-08T22:20:09.113Z,20.2
2023-09-08T22:25:10.162Z,20.2
2023-09-08T22:30:08.432Z,20.2
2023-09-08T22:35:08.585Z,20.2
2023-09-08T22:40:08.823Z,20.2
2023-09-08T22:45:09.073Z,20.2
2023-09-08T22:50:08.357Z,20.2
2023-09-08T22:55:23.625Z,19.5
2023-09-08T23:01:08.474Z,19.5
2023-09-08T23:05:08.671Z,19.5
2023-09-08T23:10:08.433Z,19.5
2023-09-08T23:15:08.678Z,19.5
2023-09-08T23:20:09.019Z,19.5
2023-09-08T23:25:08.296Z,19.7
2023-09-08T23:30:08.574Z,19.7
2023-09-08T23:35:08.682Z,19.7
2023-09-08T23:40:08.836Z,19.7
2023-09-08T23:45:09.066Z,19.7
2023-09-08T23:50:08.226Z,19.7
2023-09-08T23:55:08.379Z,19.7
